Time;durP1;ratioP1;P1;durP2;ratioP2;P2;SDS_P1;SDS_P2;PMS_P1;PMS_P2;Temp;Humidity;BMP_temperature;BMP_pressure;BME280_temperature;BME280_humidity;BME280_pressure;Samples;Min_cycle;Max_cycle;Signal;HPM_P1;HPM_P2
2022/12/04 00:02:09;;;;;;;31.65;15.35;;;;;;;1.82;100.00;100373.38;4993348;28;20129;-70
2022/12/04 00:04:36;;;;;;;31.45;16.10;;;;;;;1.84;100.00;100365.53;4988160;28;20048;-71
2022/12/04 00:07:03;;;;;;;32.75;15.95;;;;;;;1.90;100.00;100365.44;4989460;28;20449;-72
2022/12/04 00:09:29;;;;;;;33.10;15.52;;;;;;;1.75;100.00;100327.34;4985396;28;20054;-72
2022/12/04 00:11:56;;;;;;;30.90;15.45;;;;;;;1.92;100.00;100361.06;4988298;28;20050;-70
2022/12/04 00:14:22;;;;;;;35.60;16.98;;;;;;;1.89;100.00;100350.69;4990442;28;20081;-75
2022/12/04 00:16:49;;;;;;;33.65;16.63;;;;;;;1.89;100.00;100361.13;4992988;28;20057;-76
2022/12/04 00:19:16;;;;;;;32.67;16.35;;;;;;;1.88;100.00;100364.63;4983901;28;20060;-70
2022/12/04 00:21:44;;;;;;;34.90;16.27;;;;;;;1.85;100.00;100356.81;4991151;28;20058;-72
2022/12/04 00:24:11;;;;;;;33.63;16.27;;;;;;;1.85;100.00;100362.03;4991746;28;20053;-71
2022/12/04 00:26:37;;;;;;;28.85;16.10;;;;;;;1.86;100.00;100376.84;4991168;28;20141;-73
2022/12/04 00:29:04;;;;;;;33.20;16.35;;;;;;;1.86;100.00;100375.09;4985169;28;20042;-72
2022/12/04 00:31:31;;;;;;;33.83;16.35;;;;;;;1.85;100.00;100375.97;4992534;28;20208;-74
2022/12/04 00:33:58;;;;;;;32.60;16.52;;;;;;;1.83;100.00;100374.25;4994887;28;20354;-73
2022/12/04 00:36:28;;;;;;;32.38;17.10;;;;;;;1.79;100.00;100388.22;4993821;28;20946;-74
2022/12/04 00:38:57;;;;;;;31.90;16.08;;;;;;;1.77;100.00;100386.47;4992285;28;20483;-72
2022/12/04 00:41:25;;;;;;;34.75;16.48;;;;;;;1.77;100.00;100391.72;4995293;28;20049;-73
2022/12/04 00:43:52;;;;;;;32.67;16.38;;;;;;;1.73;100.00;100378.72;4994917;28;20133;-73
2022/12/04 00:46:20;;;;;;;33.67;16.60;;;;;;;1.76;100.00;100373.44;4994286;28;20140;-69
2022/12/04 00:48:46;;;;;;;30.92;16.35;;;;;;;1.74;100.00;100381.28;4991926;28;20048;-74
2022/12/04 00:51:16;;;;;;;35.85;16.85;;;;;;;1.70;100.00;100387.47;4992575;28;20149;-71
2022/12/04 00:53:43;;;;;;;35.40;16.33;;;;;;;1.68;100.00;100384.00;4994333;28;20061;-73
2022/12/04 00:56:13;;;;;;;35.78;17.33;;;;;;;1.65;100.00;100376.19;4995628;28;20484;-70
2022/12/04 00:58:40;;;;;;;34.03;17.20;;;;;;;1.68;100.00;100384.00;4990338;28;20054;-71
2022/12/04 01:01:11;;;;;;;34.75;17.40;;;;;;;1.65;100.00;100391.84;4994385;28;21093;-69
2022/12/04 01:03:38;;;;;;;36.00;16.38;;;;;;;1.65;100.00;100389.25;4997916;28;20046;-71
2022/12/04 01:06:06;;;;;;;35.65;17.25;;;;;;;1.57;100.00;100357.16;4996938;28;20092;-74
2022/12/04 01:08:33;;;;;;;37.63;17.52;;;;;;;1.60;100.00;100370.16;4988727;28;20050;-69
2022/12/04 01:11:04;;;;;;;34.35;16.55;;;;;;;1.65;100.00;100368.34;4993994;28;20046;-71
2022/12/04 01:13:31;;;;;;;34.55;16.50;;;;;;;1.63;100.00;100367.50;4994330;28;20355;-74
2022/12/04 01:15:57;;;;;;;35.63;16.92;;;;;;;1.53;100.00;100341.53;5000012;28;20389;-71
2022/12/04 01:18:24;;;;;;;35.80;16.98;;;;;;;1.69;100.00;100359.63;4988503;28;20050;-70
2022/12/04 01:20:51;;;;;;;32.97;17.40;;;;;;;1.71;100.00;100350.03;4989685;28;20073;-74
2022/12/04 01:23:20;;;;;;;33.80;16.40;;;;;;;1.73;100.00;100347.41;4998687;28;20081;-73
2022/12/04 01:25:56;;;;;;;32.05;15.77;;;;;;;1.66;100.00;100346.59;4993340;28;20428;-72
2022/12/04 01:28:23;;;;;;;33.70;15.75;;;;;;;1.40;100.00;100296.47;4997047;28;20055;-70
2022/12/04 01:31:00;;;;;;;32.38;15.98;;;;;;;1.66;100.00;100337.91;4992526;28;20074;-75
2022/12/04 01:33:28;;;;;;;32.15;16.20;;;;;;;1.61;100.00;100335.34;4992168;28;20137;-68
2022/12/04 01:35:56;;;;;;;33.13;17.00;;;;;;;1.65;100.00;100341.38;4988751;28;20069;-67
2022/12/04 01:38:24;;;;;;;32.45;15.48;;;;;;;1.72;100.00;100341.31;4995351;28;20070;-69
2022/12/04 01:40:51;;;;;;;34.45;16.95;;;;;;;1.72;100.00;100330.88;4986074;28;20045;-73
2022/12/04 01:43:18;;;;;;;33.38;17.05;;;;;;;1.72;100.00;100330.88;4990815;28;20514;-72
2022/12/04 01:45:48;;;;;;;33.03;16.55;;;;;;;1.73;100.00;100337.78;4991955;28;20164;-73
2022/12/04 01:48:20;;;;;;;33.83;16.50;;;;;;;1.72;100.00;100325.66;4989074;28;20074;-68
2022/12/04 01:50:52;;;;;;;32.85;15.38;;;;;;;1.76;100.00;100334.28;4987064;28;20121;-70
2022/12/04 01:53:19;;;;;;;;;;;;;;;1.82;100.00;100338.59;4992879;28;20151;-75
2022/12/04 01:55:47;;;;;;;30.95;15.40;;;;;;;1.62;100.00;100313.56;4992852;28;19926;-74
2022/12/04 01:58:16;;;;;;;31.20;15.75;;;;;;;1.72;100.00;100341.31;4991936;28;20149;-71
2022/12/04 02:00:43;;;;;;;33.00;16.73;;;;;;;1.72;100.00;100345.66;4987664;28;20132;-70
2022/12/04 02:03:16;;;;;;;29.52;15.25;;;;;;;1.61;100.00;100335.34;4988952;28;20459;-70
2022/12/04 02:05:43;;;;;;;35.45;16.65;;;;;;;1.66;100.00;100345.72;4989733;28;20061;-73
2022/12/04 02:08:09;;;;;;;31.58;16.40;;;;;;;1.68;100.00;100344.84;4997096;28;20061;-75
2022/12/04 02:10:54;;;;;;;31.80;16.30;;;;;;;1.61;100.00;100345.78;4986571;28;20073;-69
2022/12/04 02:13:35;;;;;;;34.10;16.42;;;;;;;1.58;100.00;100353.63;4993343;28;20050;-72
2022/12/04 02:16:16;;;;;;;34.63;16.17;;;;;;;1.52;100.00;100343.28;4993911;28;20058;-71
2022/12/04 02:19:03;;;;;;;33.25;15.45;;;;;;;1.54;100.00;100357.19;4993650;28;20498;-72
2022/12/04 02:21:37;;;;;;;30.75;15.35;;;;;;;1.46;100.00;100343.34;4990731;28;20046;-69
2022/12/04 02:24:33;;;;;;;33.55;16.63;;;;;;;1.55;100.00;100361.53;4993713;28;20046;-72
2022/12/04 02:27:07;;;;;;;33.00;16.45;;;;;;;1.59;100.00;100355.38;4992672;28;20125;-72
2022/12/04 02:29:56;;;;;;;32.75;16.30;;;;;;;1.60;100.00;100351.88;4984558;28;20045;-72
2022/12/04 02:32:32;;;;;;;30.42;15.60;;;;;;;1.64;100.00;100361.41;4991885;28;20046;-71
2022/12/04 02:35:26;;;;;;;32.10;16.05;;;;;;;1.70;100.00;100353.53;4990913;28;20557;-69
2022/12/04 02:38:09;;;;;;;32.70;15.40;;;;;;;1.71;100.00;100360.47;4992352;28;20137;-68
2022/12/04 02:41:16;;;;;;;30.05;14.85;;;;;;;1.61;100.00;100327.50;4990556;28;20058;-68
2022/12/04 02:43:47;;;;;;;30.45;15.52;;;;;;;1.77;100.00;100359.50;4993443;28;20386;-72
2022/12/04 02:46:31;;;;;;;33.45;16.73;;;;;;;1.80;100.00;100366.44;4994082;28;20057;-73
2022/12/04 02:49:01;;;;;;;32.03;16.75;;;;;;;1.79;100.00;100356.88;4989150;28;20065;-67
2022/12/04 02:51:32;;;;;;;31.83;16.13;;;;;;;1.80;100.00;100371.66;4983953;28;20046;-72
2022/12/04 02:54:06;;;;;;;33.10;16.40;;;;;;;1.82;100.00;100364.69;4990762;28;20054;-68
2022/12/04 02:56:39;;;;;;;31.63;16.38;;;;;;;1.62;100.00;100328.38;4990600;28;20181;-72
2022/12/04 02:59:11;;;;;;;30.60;15.70;;;;;;;1.79;100.00;100352.53;4988771;28;20045;-71
2022/12/04 03:01:43;;;;;;;34.40;16.75;;;;;;;1.72;100.00;100336.09;4987348;28;20061;-70
2022/12/04 03:04:17;;;;;;;31.77;15.95;;;;;;;1.68;100.00;100334.41;4991849;28;20092;-73
2022/12/04 03:06:48;;;;;;;33.63;17.38;;;;;;;1.68;100.00;100338.75;4995554;28;20442;-74
2022/12/04 03:09:34;;;;;;;31.08;16.50;;;;;;;1.62;100.00;100334.47;4988009;28;20046;-69
2022/12/04 03:12:26;;;;;;;33.47;16.48;;;;;;;1.71;100.00;100344.81;4989418;28;20711;-74
2022/12/04 03:15:01;;;;;;;33.92;16.70;;;;;;;1.75;100.00;100348.22;4996240;28;20220;-72
2022/12/04 03:17:41;;;;;;;30.90;16.05;;;;;;;1.72;100.00;100335.22;4992237;28;20098;-73
2022/12/04 03:20:11;;;;;;;31.90;16.88;;;;;;;1.59;100.00;100324.03;4988064;28;20050;-74
2022/12/04 03:22:41;;;;;;;30.13;16.05;;;;;;;1.74;100.00;100347.34;4993549;28;20054;-72
2022/12/04 03:25:09;;;;;;;32.60;16.33;;;;;;;1.68;100.00;100342.22;4990880;28;20053;-72
2022/12/04 03:28:07;;;;;;;29.65;15.93;;;;;;;1.71;100.00;100343.94;4990195;28;20060;-74
2022/12/04 03:30:47;;;;;;;32.75;16.15;;;;;;;1.72;100.00;100346.53;4984846;28;20045;-70
2022/12/04 03:33:30;;;;;;;31.85;15.65;;;;;;;1.74;100.00;100347.34;4989908;28;20048;-72
2022/12/04 03:36:15;;;;;;;29.55;16.20;;;;;;;1.61;100.00;100319.69;4994126;28;20414;-72
2022/12/04 03:39:00;;;;;;;29.98;15.65;;;;;;;1.64;100.00;100321.38;4988265;28;20064;-71
2022/12/04 03:41:38;;;;;;;29.80;15.38;;;;;;;1.75;100.00;100340.38;4987226;28;20065;-70
2022/12/04 03:44:21;;;;;;;30.13;16.35;;;;;;;1.76;100.00;100339.50;4995839;28;21127;-72
2022/12/04 03:47:00;;;;;;;29.88;15.55;;;;;;;1.77;100.00;100342.09;4995740;28;20486;-74
2022/12/04 03:49:50;;;;;;;33.08;15.65;;;;;;;1.77;100.00;100344.72;4988465;28;20088;-71
2022/12/04 03:52:33;;;;;;;28.45;15.52;;;;;;;1.75;100.00;100340.38;4989023;28;20060;-72
2022/12/04 03:55:14;;;;;;;30.13;15.77;;;;;;;1.53;100.00;100305.88;4992144;28;20137;-68
2022/12/04 03:57:44;;;;;;;32.97;16.27;;;;;;;1.62;100.00;100316.19;4995238;28;20058;-69
2022/12/04 04:00:21;;;;;;;31.50;16.30;;;;;;;1.71;100.00;100329.16;4988049;28;20413;-71
2022/12/04 04:02:57;;;;;;;35.22;16.58;;;;;;;1.53;100.00;100303.25;4995970;28;20505;-73
2022/12/04 04:05:27;;;;;;;32.40;16.20;;;;;;;1.61;100.00;100321.41;4994174;28;20133;-72
2022/12/04 04:08:24;;;;;;;31.17;16.40;;;;;;;1.65;100.00;100328.34;4992584;28;20121;-68
2022/12/04 04:10:50;;;;;;;34.53;16.88;;;;;;;1.65;100.00;100330.94;4984531;28;20050;-72
2022/12/04 04:24:51;;;;;;;34.40;16.63;;;;;;;1.45;100.00;100294.63;4984823;28;20375;-73
2022/12/04 04:27:18;;;;;;;33.40;15.63;;;;;;;1.56;100.00;100310.19;4988494;28;20509;-72
2022/12/04 04:29:44;;;;;;;34.47;16.33;;;;;;;1.59;100.00;100310.13;4982287;28;20145;-70
2022/12/04 04:32:42;;;;;;;32.13;16.75;;;;;;;1.48;100.00;100294.59;4990843;28;20141;-70
2022/12/04 04:35:15;;;;;;;31.38;16.33;;;;;;;1.63;100.00;100315.31;4987602;28;20050;-68
2022/12/04 04:37:54;;;;;;;31.20;15.95;;;;;;;1.54;100.00;100289.34;4990553;28;20138;-71
2022/12/04 04:40:39;;;;;;;31.27;16.05;;;;;;;1.72;100.00;100319.56;4988886;28;20145;-68
2022/12/04 04:43:05;;;;;;;30.42;15.55;;;;;;;1.75;100.00;100315.16;4992278;28;20252;-71
2022/12/04 04:45:44;;;;;;;28.58;15.25;;;;;;;1.70;100.00;100311.75;4989209;28;20058;-72
2022/12/04 04:48:21;;;;;;;31.92;16.05;;;;;;;1.65;100.00;100316.16;4985588;28;20058;-72
2022/12/04 04:50:49;;;;;;;32.45;16.40;;;;;;;1.63;100.00;100320.53;4986840;28;20605;-70
2022/12/04 04:53:22;;;;;;;31.73;16.10;;;;;;;1.54;100.00;100314.56;5003613;28;20473;-70
2022/12/04 04:55:49;;;;;;;29.88;15.52;;;;;;;1.55;100.00;100325.00;4986635;28;20052;-70
2022/12/04 04:58:18;;;;;;;29.02;15.00;;;;;;;1.59;100.00;100329.25;4992007;28;20104;-69
2022/12/04 05:01:06;;;;;;;29.40;15.55;;;;;;;1.62;100.00;100331.84;4988603;28;20099;-68
2022/12/04 05:03:33;;;;;;;32.05;15.85;;;;;;;1.61;100.00;100332.72;4990652;28;20514;-73
2022/12/04 05:06:00;;;;;;;31.35;15.57;;;;;;;1.60;100.00;100333.59;4990190;28;20050;-71
2022/12/04 05:08:27;;;;;;;29.67;14.77;;;;;;;1.63;100.00;100328.34;4991197;28;20181;-70
2022/12/04 05:10:54;;;;;;;30.85;15.57;;;;;;;1.66;100.00;100330.06;4983696;28;20157;-71
2022/12/04 05:13:21;;;;;;;30.27;15.35;;;;;;;1.69;100.00;100328.28;4990028;28;20132;-74
2022/12/04 05:15:58;;;;;;;28.73;14.80;;;;;;;1.67;100.00;100337.03;4992383;28;20117;-73
2022/12/04 05:18:26;;;;;;;31.15;15.77;;;;;;;1.68;100.00;100333.53;4988209;28;20054;-70
2022/12/04 05:20:52;;;;;;;30.38;15.88;;;;;;;1.68;100.00;100317.88;4989057;28;20072;-71
2022/12/04 05:23:19;;;;;;;30.67;15.98;;;;;;;1.68;100.00;100313.50;4991347;28;20451;-71
2022/12/04 05:25:46;;;;;;;32.38;15.05;;;;;;;1.69;100.00;100310.03;4991752;28;20478;-73
2022/12/04 05:28:13;;;;;;;28.98;15.38;;;;;;;1.72;100.00;100304.78;4999080;28;20475;-68
2022/12/04 05:30:40;;;;;;;30.85;14.70;;;;;;;1.70;100.00;100308.28;4992460;28;20711;-70
2022/12/04 05:33:09;;;;;;;30.33;15.30;;;;;;;1.70;100.00;100303.91;4992139;28;20053;-72
2022/12/04 05:35:35;;;;;;;28.15;14.82;;;;;;;1.74;100.00;100315.16;4993598;28;20054;-72
2022/12/04 05:38:02;;;;;;;31.88;15.35;;;;;;;1.77;100.00;100317.75;4993713;28;20476;-71
2022/12/04 05:40:29;;;;;;;27.88;15.10;;;;;;;1.76;100.00;100321.22;4991456;28;20526;-72
2022/12/04 05:42:56;;;;;;;29.88;15.48;;;;;;;1.60;100.00;100291.84;4994950;28;20061;-73
2022/12/04 05:45:22;;;;;;;30.63;15.27;;;;;;;1.63;100.00;100294.41;4991155;28;20049;-72
2022/12/04 05:47:49;;;;;;;29.30;15.07;;;;;;;1.70;100.00;100306.53;4982688;28;20069;-75
2022/12/04 05:50:15;;;;;;;30.05;15.52;;;;;;;1.75;100.00;100315.16;4986351;28;20042;-72
2022/12/04 05:52:42;;;;;;;28.63;15.25;;;;;;;1.72;100.00;100325.66;4988774;28;20161;-71
2022/12/04 05:55:09;;;;;;;29.10;14.50;;;;;;;1.55;100.00;100296.28;4985130;28;20048;-70
2022/12/04 05:57:35;;;;;;;30.33;15.07;;;;;;;1.62;100.00;100305.75;4984596;28;20061;-71
2022/12/04 06:00:03;;;;;;;31.40;15.55;;;;;;;1.66;100.00;100325.72;4983171;28;20577;-70
2022/12/04 06:02:30;;;;;;;30.20;15.25;;;;;;;1.64;100.00;100332.69;4983864;28;20054;-71
2022/12/04 06:04:57;;;;;;;33.33;16.02;;;;;;;1.58;100.00;100317.09;4984004;28;20050;-71
2022/12/04 06:07:23;;;;;;;31.15;15.48;;;;;;;1.57;100.00;100324.97;4987433;28;20068;-69
2022/12/04 06:09:50;;;;;;;33.70;15.68;;;;;;;1.55;100.00;100326.72;4979204;28;20461;-72
2022/12/04 06:12:16;;;;;;;31.02;15.52;;;;;;;1.44;100.00;100313.78;4986553;28;20593;-73
2022/12/04 06:14:43;;;;;;;31.20;16.10;;;;;;;1.49;100.00;100327.66;4989182;28;20394;-70
2022/12/04 06:17:09;;;;;;;30.33;15.13;;;;;;;1.51;100.00;100333.72;4997037;28;21867;-69
2022/12/04 06:19:36;;;;;;;27.63;14.07;;;;;;;1.54;100.00;100340.66;4989380;28;20081;-70
2022/12/04 06:22:02;;;;;;;27.98;14.32;;;;;;;1.57;100.00;100336.28;4994808;28;20043;-72
2022/12/04 06:24:29;;;;;;;31.90;15.82;;;;;;;1.55;100.00;100340.66;4994161;28;20066;-73
2022/12/04 06:26:57;;;;;;;26.20;14.50;;;;;;;1.57;100.00;100338.88;4994186;28;20052;-70
2022/12/04 06:29:44;;;;;;;32.88;15.68;;;;;;;1.44;100.00;100329.44;4988975;28;20153;-70
2022/12/04 06:32:11;;;;;;;27.50;14.35;;;;;;;1.54;100.00;100343.28;4985607;28;20093;-72
2022/12/04 06:34:44;;;;;;;27.10;14.32;;;;;;;1.58;100.00;100329.28;4991199;28;20490;-69
2022/12/04 06:37:11;;;;;;;30.80;14.63;;;;;;;1.57;100.00;100335.41;4992652;28;20059;-72
2022/12/04 06:39:37;;;;;;;27.25;14.02;;;;;;;1.55;100.00;100340.66;4990646;28;20058;-70
2022/12/04 06:42:04;;;;;;;26.20;14.57;;;;;;;1.51;100.00;100325.03;4988010;28;20056;-73
2022/12/04 06:44:31;;;;;;;28.80;14.73;;;;;;;1.47;100.00;100313.75;4992574;28;20058;-71
2022/12/04 06:46:57;;;;;;;25.92;13.73;;;;;;;1.58;100.00;100326.66;4991061;28;20065;-72
2022/12/04 06:49:26;;;;;;;25.60;13.70;;;;;;;1.60;100.00;100325.78;4986934;28;20045;-71
2022/12/04 06:51:53;;;;;;;28.00;14.45;;;;;;;1.60;100.00;100323.16;4987808;28;20360;-71
2022/12/04 06:54:19;;;;;;;29.27;14.45;;;;;;;1.60;100.00;100328.38;4990267;28;20527;-71
2022/12/04 06:56:48;;;;;;;27.95;13.88;;;;;;;1.59;100.00;100336.22;4987577;28;20170;-72
2022/12/04 06:59:14;;;;;;;27.92;14.45;;;;;;;1.58;100.00;100326.66;4995597;28;20045;-72
2022/12/04 07:01:41;;;;;;;27.70;14.82;;;;;;;1.45;100.00;100288.56;4986041;28;20434;-73
2022/12/04 07:04:07;;;;;;;26.95;14.02;;;;;;;1.57;100.00;100320.63;4993916;28;20443;-72
2022/12/04 07:06:36;;;;;;;27.42;14.02;;;;;;;1.51;100.00;100320.69;4988966;28;20104;-71
2022/12/04 07:09:10;;;;;;;27.25;14.25;;;;;;;1.49;100.00;100321.56;4993724;28;20112;-73
2022/12/04 07:11:38;;;;;;;26.75;14.40;;;;;;;1.52;100.00;100325.00;4984698;28;20077;-71
2022/12/04 07:14:05;;;;;;;25.98;14.60;;;;;;;1.36;100.00;100300.84;4991991;28;20149;-75
2022/12/04 07:16:32;;;;;;;26.60;14.68;;;;;;;1.51;100.00;100325.91;4992453;28;20129;-72
2022/12/04 07:19:06;;;;;;;25.02;13.82;;;;;;;1.53;100.00;100318.06;4993792;28;20858;-72
2022/12/04 07:21:33;;;;;;;29.90;14.43;;;;;;;1.52;100.00;100318.94;4989686;28;20490;-72
2022/12/04 07:24:01;;;;;;;26.33;14.07;;;;;;;1.58;100.00;100322.31;4993335;28;20180;-73
2022/12/04 07:26:29;;;;;;;26.38;15.02;;;;;;;1.46;100.00;100304.19;4994929;28;20129;-73
2022/12/04 07:28:57;;;;;;;26.92;14.48;;;;;;;1.38;100.00;100300.81;4990533;28;20080;-69
2022/12/04 07:31:25;;;;;;;26.67;14.68;;;;;;;1.51;100.00;100317.19;4985037;28;20047;-70
2022/12/04 07:33:53;;;;;;;25.50;14.10;;;;;;;1.54;100.00;100317.16;4987035;28;20148;-72
2022/12/04 07:36:21;;;;;;;29.08;14.95;;;;;;;1.53;100.00;100318.91;4994428;28;20208;-73
2022/12/04 07:38:48;;;;;;;27.27;14.70;;;;;;;1.43;100.00;100296.41;4994665;28;20130;-73
2022/12/04 07:41:16;;;;;;;25.65;13.18;;;;;;;1.52;100.00;100311.97;4986713;28;20517;-72
2022/12/04 07:43:43;;;;;;;28.00;14.13;;;;;;;1.53;100.00;100312.84;4988485;28;20054;-73
2022/12/04 07:46:13;;;;;;;23.15;12.95;;;;;;;1.54;100.00;100309.34;4995399;28;20058;-74
2022/12/04 07:48:40;;;;;;;25.65;13.23;;;;;;;1.54;100.00;100314.56;4983266;28;20404;-71
2022/12/04 07:51:13;;;;;;;25.00;14.32;;;;;;;1.48;100.00;100312.88;4981866;28;20058;-68
2022/12/04 07:53:41;;;;;;;26.45;14.65;;;;;;;1.46;100.00;100322.47;4980618;28;20048;-75
2022/12/04 07:56:10;;;;;;;25.15;13.95;;;;;;;1.47;100.00;100318.97;4984819;28;20659;-73
2022/12/04 07:58:36;;;;;;;28.42;14.55;;;;;;;1.50;100.00;100324.16;4984076;28;20045;-73
2022/12/04 08:01:11;;;;;;;25.50;13.90;;;;;;;1.53;100.00;100329.34;4982826;28;20490;-71
2022/12/04 08:03:43;;;;;;;26.63;13.98;;;;;;;1.50;100.00;100318.94;4985957;28;21514;-69
2022/12/04 08:06:15;;;;;;;25.00;13.98;;;;;;;1.50;100.00;100325.91;4980532;28;20053;-71
2022/12/04 08:08:41;;;;;;;29.10;14.07;;;;;;;1.52;100.00;100331.97;4981934;28;20509;-71
2022/12/04 08:11:14;;;;;;;24.08;14.13;;;;;;;1.50;100.00;100334.59;4983022;28;20046;-71
2022/12/04 08:13:40;;;;;;;26.63;14.10;;;;;;;1.56;100.00;100339.75;4991429;28;20443;-72
2022/12/04 08:16:09;;;;;;;27.50;14.50;;;;;;;1.59;100.00;100342.31;4992844;28;20687;-73
2022/12/04 08:18:36;;;;;;;26.15;14.02;;;;;;;1.67;100.00;100347.47;4993613;28;20132;-72
2022/12/04 08:21:08;;;;;;;28.85;15.00;;;;;;;1.81;100.00;100355.13;4986476;28;20466;-73
2022/12/04 08:23:35;;;;;;;28.73;14.65;;;;;;;1.86;100.00;100348.97;4990836;28;20042;-72
2022/12/04 08:26:03;;;;;;;29.95;14.57;;;;;;;1.92;100.00;100348.88;4993391;28;20467;-77
2022/12/04 08:28:30;;;;;;;31.33;15.48;;;;;;;1.86;100.00;100354.19;4988599;28;20415;-75
2022/12/04 08:31:12;;;;;;;28.80;15.02;;;;;;;1.84;100.00;100352.47;4987244;28;20091;-72
2022/12/04 08:33:41;;;;;;;27.17;14.52;;;;;;;1.81;100.00;100342.06;4989075;28;20135;-72
2022/12/04 08:36:09;;;;;;;30.52;14.73;;;;;;;1.81;100.00;100344.69;4994458;28;20141;-74
2022/12/04 08:38:36;;;;;;;30.45;15.30;;;;;;;1.82;100.00;100338.59;4990132;28;20137;-72
2022/12/04 08:41:05;;;;;;;36.88;17.15;;;;;;;1.72;100.00;100324.78;4992576;28;20148;-72
2022/12/04 08:43:32;;;;;;;28.23;15.13;;;;;;;1.80;100.00;100333.38;4984465;28;20129;-72
2022/12/04 08:46:05;;;;;;;33.33;15.98;;;;;;;1.75;100.00;100327.34;4988708;28;20107;-73
2022/12/04 08:48:32;;;;;;;32.63;15.80;;;;;;;1.87;100.00;100339.41;4990003;28;20062;-68
2022/12/04 08:51:00;;;;;;;32.97;16.58;;;;;;;1.84;100.00;100321.16;4986804;28;20038;-75
2022/12/04 08:53:26;;;;;;;34.05;16.75;;;;;;;1.60;100.00;100283.16;4994644;28;20478;-72
2022/12/04 08:55:53;;;;;;;32.70;17.05;;;;;;;1.85;100.00;100328.09;4996390;28;20525;-73
2022/12/04 08:58:19;;;;;;;33.40;17.23;;;;;;;1.88;100.00;100333.28;4990912;28;20455;-72
2022/12/04 09:00:47;;;;;;;32.55;15.60;;;;;;;1.73;100.00;100305.63;4981278;28;20136;-72
2022/12/04 09:03:18;;;;;;;37.67;16.67;;;;;;;1.81;100.00;100324.66;4987985;28;20434;-69
2022/12/04 09:05:45;;;;;;;37.17;17.17;;;;;;;1.85;100.00;100330.72;4995620;28;20108;-71
2022/12/04 09:08:16;;;;;;;36.90;17.15;;;;;;;1.85;100.00;100321.13;4993415;28;20042;-74
2022/12/04 09:10:43;;;;;;;37.22;17.35;;;;;;;1.82;100.00;100315.09;4992196;28;20073;-73
2022/12/04 09:13:09;;;;;;;36.35;17.40;;;;;;;1.81;100.00;100306.38;4986386;28;20050;-72
2022/12/04 09:15:39;;;;;;;34.42;16.98;;;;;;;1.86;100.00;100311.56;4987911;28;20042;-73
2022/12/04 09:18:08;;;;;;;41.58;17.60;;;;;;;1.87;100.00;100305.44;4992300;28;20491;-70
2022/12/04 09:20:35;;;;;;;38.83;18.08;;;;;;;1.96;100.00;100323.59;4992143;28;20056;-71
2022/12/04 09:23:03;;;;;;;37.33;17.50;;;;;;;2.00;100.00;100327.91;4988803;28;20136;-71
2022/12/04 09:25:35;;;;;;;35.28;17.15;;;;;;;1.98;100.00;100319.22;4995031;28;20049;-70
2022/12/04 09:28:02;;;;;;;37.83;18.50;;;;;;;1.95;100.00;100319.25;4991452;28;20153;-72
2022/12/04 09:30:29;;;;;;;40.97;19.17;;;;;;;1.99;100.00;100328.78;4993130;28;20058;-70
2022/12/04 09:32:55;;;;;;;42.28;19.25;;;;;;;1.99;100.00;100318.34;4985610;28;20056;-73
2022/12/04 09:35:22;;;;;;;42.67;19.65;;;;;;;1.99;100.00;100324.44;4988960;28;20113;-74
2022/12/04 09:37:49;;;;;;;40.50;18.13;;;;;;;1.98;100.00;100320.09;4983716;28;20130;-68
2022/12/04 09:40:28;;;;;;;42.25;19.58;;;;;;;1.99;100.00;100313.13;4982877;28;20050;-70
2022/12/04 09:43:33;;;;;;;40.75;18.17;;;;;;;2.09;100.00;100309.47;4976440;28;20120;-74
2022/12/04 09:46:11;;;;;;;38.45;18.63;;;;;;;2.16;100.00;100313.75;4986219;28;20402;-69
2022/12/04 09:48:41;;;;;;;39.92;18.02;;;;;;;2.20;100.00;100307.59;4984893;28;20731;-71
2022/12/04 09:51:17;;;;;;;39.78;17.33;;;;;;;2.27;100.00;100303.13;4977950;28;20512;-72
2022/12/04 09:53:43;;;;;;;40.20;18.63;;;;;;;2.32;100.00;100303.94;4984601;28;20069;-70
2022/12/04 09:56:14;;;;;;;43.20;18.95;;;;;;;2.32;100.00;100296.97;4989941;28;20069;-69
2022/12/04 09:58:46;;;;;;;39.10;18.25;;;;;;;2.27;100.00;100283.09;4983402;28;20050;-72
2022/12/04 10:01:31;;;;;;;40.33;17.58;;;;;;;2.41;100.00;100307.28;4990537;28;20585;-73
2022/12/04 10:03:58;;;;;;;41.08;17.92;;;;;;;2.41;100.00;100314.25;4979519;28;20037;-70
2022/12/04 10:06:42;;;;;;;39.97;19.00;;;;;;;2.43;100.00;100313.34;4994526;28;20060;-71
2022/12/04 10:09:31;;;;;;;39.72;18.23;;;;;;;2.41;100.00;100311.63;4989466;28;20053;-71
2022/12/04 10:12:11;;;;;;;42.95;18.70;;;;;;;2.47;100.00;100309.81;4980991;28;20069;-70
2022/12/04 10:15:07;;;;;;;42.67;18.52;;;;;;;2.45;100.00;100305.47;4981511;28;20054;-71
2022/12/04 10:18:02;;;;;;;40.80;18.48;;;;;;;2.53;100.00;100308.81;4979160;28;20050;-72
2022/12/04 10:20:44;;;;;;;44.65;19.00;;;;;;;2.33;100.00;100272.56;4994762;28;20436;-72
2022/12/04 10:23:23;;;;;;;39.33;17.98;;;;;;;2.40;100.00;100271.56;4992717;28;20374;-71
2022/12/04 10:25:52;;;;;;;39.47;18.67;;;;;;;2.54;100.00;100294.00;5004479;28;20108;-70
2022/12/04 10:28:21;;;;;;;39.92;18.05;;;;;;;2.51;100.00;100297.56;5007832;28;20058;-72
2022/12/04 10:30:51;;;;;;;38.78;18.42;;;;;;;2.52;100.00;100288.78;5001704;28;20061;-73
2022/12/04 10:33:22;;;;;;;41.80;18.33;;;;;;;2.47;100.00;100278.44;4995364;28;20104;-73
2022/12/04 10:35:51;;;;;;;40.55;18.17;;;;;;;2.53;100.00;100284.44;4996751;28;20494;-73
2022/12/04 10:38:41;;;;;;;48.83;21.42;;;;;;;2.54;100.00;100288.78;5004020;28;20486;-73
2022/12/04 10:41:24;;;;;;;41.90;19.67;;;;;;;2.48;100.00;100268.84;4998288;28;20510;-75
2022/12/04 10:43:51;;;;;;;38.08;17.80;;;;;;;2.58;100.00;100269.56;4991427;28;20474;-74
2022/12/04 10:46:27;;;;;;;42.45;18.10;;;;;;;2.56;100.00;100259.13;4999663;28;20157;-74
2022/12/04 10:49:00;;;;;;;40.80;18.25;;;;;;;2.62;100.00;100274.72;5001624;28;20563;-73
2022/12/04 10:51:30;;;;;;;37.50;17.80;;;;;;;2.62;100.00;100269.47;5000791;28;20046;-74
2022/12/04 10:53:57;;;;;;;42.75;19.27;;;;;;;2.58;100.00;100246.88;4996047;28;20045;-74
2022/12/04 10:56:25;;;;;;;36.97;17.38;;;;;;;2.68;100.00;100250.19;4997494;28;20520;-72
2022/12/04 10:58:56;;;;;;;37.20;18.15;;;;;;;2.73;100.00;100248.38;5003894;28;20062;-72
2022/12/04 11:01:23;;;;;;;38.50;17.98;;;;;;;2.64;100.00;100225.88;4999497;28;20526;-74
2022/12/04 11:04:26;;;;;;;34.92;17.50;;;;;;;2.80;100.00;100244.78;4994205;28;20156;-72
2022/12/04 11:07:05;;;;;;;39.40;17.73;;;;;;;2.68;100.00;100214.47;5006606;28;20053;-73
2022/12/04 11:09:33;;;;;;;35.15;17.00;;;;;;;2.88;100.00;100236.78;5004830;28;20136;-74
2022/12/04 11:12:14;;;;;;;41.78;18.75;;;;;;;2.84;100.00;100243.81;4997697;28;20050;-73
2022/12/04 11:14:41;;;;;;;34.28;16.17;;;;;;;2.75;100.00;100233.53;5000005;28;20065;-72
2022/12/04 11:17:17;;;;;;;37.97;18.05;;;;;;;2.70;100.00;100215.28;4997788;28;20116;-73
2022/12/04 11:19:44;;;;;;;33.95;16.48;;;;;;;2.81;100.00;100228.19;4997798;28;20057;-72
2022/12/04 11:22:16;;;;;;;37.83;17.17;;;;;;;2.79;100.00;100219.50;4999814;28;20651;-71
2022/12/04 11:24:52;;;;;;;32.25;15.98;;;;;;;2.83;100.00;100226.41;4999374;28;20042;-74
2022/12/04 11:27:28;;;;;;;33.47;16.50;;;;;;;2.78;100.00;100223.88;5002348;28;20133;-71
2022/12/04 11:29:55;;;;;;;34.53;16.52;;;;;;;2.78;100.00;100226.50;5002035;28;20093;-74
2022/12/04 11:32:26;;;;;;;33.47;17.30;;;;;;;2.60;100.00;100197.19;4998311;28;20097;-74
2022/12/04 11:34:54;;;;;;;;;;;;;;;2.76;100.00;100215.19;4996000;28;20046;-71
2022/12/04 11:37:33;;;;;;;38.00;16.63;;;;;;;2.80;100.00;100216.88;5008078;28;19927;-72
2022/12/04 11:40:04;;;;;;;31.85;16.50;;;;;;;2.83;100.00;100209.88;5001193;28;20073;-74
2022/12/04 11:42:30;;;;;;;;;;;;;;;2.83;100.00;100195.03;4999546;28;20054;-74